Huntley, Nebraska
Current Conditions -  °F | °C
As of 5:55 AM on Sunday 25 Jan 2015 (Local Time) from KHDE Reporting Station
Broken Clouds Broken Clouds  
Wind Chill: 29°   Ceiling: 3800
Heat Index: 40°   Visibility: 10mi
Dew Point: 27°   Wind: 25mph
Humidity: 60%   Direction: 340°NNW
Pressure: 29.93"   Gusts: 38mph
Location:  40.1316°N, 99.2306°W
Report Text: KHDE 251155Z AUTO 34022G33KT 10SM BKN038 04/M03 A2993 RMK AO2 T00431028 10071 20040
Loading
Personal Weather Stations






























Interactive Weather Map New forecast layout! Learn more

10-Day Weather Forecast

Advertisements
Track Severe Weather on mobile